Angola, LA (70712)

9:14 PM CDT on May 03, 2015 (GMT -0500)
False River | | Change Station
CLOSE
Current Station
Airport
Location: New Roads False River Regiona,
Elevation: 39 ft
Nearby Weather Stations
Active Advisory: Flood Warning

Elev 39 ft 30.72 °N, 91.48 °W | Updated 19 minutes ago

Partly Cloudy
Partly Cloudy
74 °F
Feels Like 74 °F
N
6
Wind Variable Wind from SSE

Today
High -- | Low -- °F
--% Chance of Precip.
Yesterday
High -- | Low -- °F
Precip. -- in
6:20 AM 7:46 PM
Full, 100% visible
Pressure 30.08 in
Visibility 10.0 miles
Clouds Scattered Clouds 7500 ft
Overcast 8500 ft
Dew Point 57 °F
Humidity 54%
Rainfall 0.00 in
Snow Depth Not available.
UV 0 out of 12
Pollen 6.20 out of 12
Air Quality Not available.
Flu Activity Sporadic
METAR KHZR 040155Z AUTO 15005KT 10SM SCT075 OVC085 24/14 A3008 RMK AO2 T02360137

More Conditions Fewer Conditions

Pressure 30.08 in
Visibility 10.0 miles
Clouds Scattered Clouds 7500 ft
Overcast 8500 ft
Dew Point 57 °F
Humidity 54%
Rainfall 0.00 in
Snow Depth Not available.
UV 0 out of 12
Pollen 6.20 out of 12
Air Quality Not available.
Flu Activity Sporadic
METAR KHZR 040155Z AUTO 15005KT 10SM SCT075 OVC085 24/14 A3008 RMK AO2 T02360137

More Conditions Fewer Conditions

Nepal has a long way to go to dig out and rebuild from a devastating earthquake. We have teamed up with several charities and organizations to make contributing to the relief effort as easy as possible.
How you can help: Portlight Strategies | Red Cross

10-Day Weather Forecast

Almanac

Astronomy

May. 03, 2015 Rise Set
Actual Time
Civil Twilight
Nautical Twilight
Astronomical Twilight
Moon
Length of Visible Light
Length of Day
Tomorrow will be .
, % of the Moon is Illuminated

Today's Extremes

State Highs State Lows

Community

WunderPhotos

Upload Photos

1,818,464 photos uploaded!

WunderBlogs® & News

Nearby

Air Quality

  Air Quality AQ Index Pollutant
Not available.

Snow Depth

Station Depth Elevation

Earthquake Activity

City Distance Mag. Time & Date
Minimum magnitude displayed is 2.5.

Coastal Water Temperatures

Place Temperature

Stations

Nearby Weather Stations

Station Location Temp. Windchill Dew Point Humidity Wind Precip. Elev Updated Type
                   
Flood Warning
Statement as of 10:51 AM CDT on May 03, 2015

The Flood Warning continues for
the Mississippi River at Red River Landing.
* Until further notice.
* At 9:00 am Sunday the stage was 52.4 feet.
* Minor flooding is occurring and minor flooding is forecast.
* Flood stage is 48.0 feet.
* Forecast... the river will remain near 52.4 feet through tomorrow
morning, then begin slowly falling to 51.3 feet next Friday.
* Impact... at 51.0 feet... all river islands along The Reach from Red
River Landing to Baton Rouge will be inundated. Recreational camps
and river bottom farm land will be under water.


Lat... Lon 3103 9153 3102 9170 3071 9159 3074 9137